sensor_id;sensor_type;location;lat;lon;timestamp;pressure;altitude;pressure_sealevel;temperature;humidity
34482;BME280;20720;48.886;9.388;2022-12-07T00:01:19;98456.81;;;8.55;100.00
34482;BME280;20720;48.886;9.388;2022-12-07T00:03:46;98456.53;;;9.01;100.00
34482;BME280;20720;48.886;9.388;2022-12-07T00:06:13;98455.75;;;9.21;100.00
34482;BME280;20720;48.886;9.388;2022-12-07T00:08:39;98457.03;;;8.25;100.00
34482;BME280;20720;48.886;9.388;2022-12-07T00:11:14;98455.56;;;8.51;100.00
34482;BME280;20720;48.886;9.388;2022-12-07T00:13:40;98450.84;;;8.03;100.00
34482;BME280;20720;48.886;9.388;2022-12-07T00:16:10;98450.53;;;7.84;100.00
34482;BME280;20720;48.886;9.388;2022-12-07T00:18:37;98451.91;;;8.23;100.00
34482;BME280;20720;48.886;9.388;2022-12-07T00:21:05;98448.13;;;8.70;100.00
34482;BME280;20720;48.886;9.388;2022-12-07T00:23:31;98448.41;;;8.60;100.00
34482;BME280;20720;48.886;9.388;2022-12-07T00:26:06;98443.75;;;8.77;100.00
34482;BME280;20720;48.886;9.388;2022-12-07T00:28:32;98455.94;;;8.84;100.00
34482;BME280;20720;48.886;9.388;2022-12-07T00:31:07;98455.03;;;9.13;100.00
34482;BME280;20720;48.886;9.388;2022-12-07T00:33:33;98450.16;;;8.89;100.00
34482;BME280;20720;48.886;9.388;2022-12-07T00:35:59;98449.56;;;8.93;100.00
34482;BME280;20720;48.886;9.388;2022-12-07T00:38:28;98447.94;;;8.71;100.00
34482;BME280;20720;48.886;9.388;2022-12-07T00:40:55;98438.78;;;9.03;100.00
34482;BME280;20720;48.886;9.388;2022-12-07T00:43:20;98442.16;;;8.76;100.00
34482;BME280;20720;48.886;9.388;2022-12-07T00:45:46;98451.31;;;9.01;100.00
34482;BME280;20720;48.886;9.388;2022-12-07T00:48:11;98439.91;;;8.58;100.00
34482;BME280;20720;48.886;9.388;2022-12-07T00:50:36;98440.84;;;8.50;100.00
34482;BME280;20720;48.886;9.388;2022-12-07T00:53:02;98445.59;;;8.62;100.00
34482;BME280;20720;48.886;9.388;2022-12-07T00:55:27;98449.63;;;8.28;100.00
34482;BME280;20720;48.886;9.388;2022-12-07T00:57:52;98447.75;;;8.73;100.00
34482;BME280;20720;48.886;9.388;2022-12-07T01:00:18;98450.69;;;8.48;100.00
34482;BME280;20720;48.886;9.388;2022-12-07T01:02:43;98452.00;;;8.74;100.00
34482;BME280;20720;48.886;9.388;2022-12-07T01:05:08;98452.63;;;8.76;100.00
34482;BME280;20720;48.886;9.388;2022-12-07T01:07:35;98453.28;;;8.99;100.00
34482;BME280;20720;48.886;9.388;2022-12-07T01:10:00;98452.47;;;8.98;100.00
34482;BME280;20720;48.886;9.388;2022-12-07T01:12:25;98453.16;;;9.07;100.00
34482;BME280;20720;48.886;9.388;2022-12-07T01:14:51;98455.91;;;8.99;100.00
34482;BME280;20720;48.886;9.388;2022-12-07T01:17:16;98453.75;;;8.88;100.00
34482;BME280;20720;48.886;9.388;2022-12-07T01:19:41;98464.22;;;8.88;100.00
34482;BME280;20720;48.886;9.388;2022-12-07T01:22:06;98456.84;;;8.77;100.00
34482;BME280;20720;48.886;9.388;2022-12-07T01:24:32;98463.38;;;8.66;100.00
34482;BME280;20720;48.886;9.388;2022-12-07T01:26:57;98458.53;;;8.48;100.00
34482;BME280;20720;48.886;9.388;2022-12-07T01:29:22;98458.06;;;8.60;100.00
34482;BME280;20720;48.886;9.388;2022-12-07T01:31:48;98454.88;;;8.79;100.00
34482;BME280;20720;48.886;9.388;2022-12-07T01:34:14;98458.88;;;8.96;100.00
34482;BME280;20720;48.886;9.388;2022-12-07T01:36:39;98450.63;;;8.78;100.00
34482;BME280;20720;48.886;9.388;2022-12-07T01:39:06;98457.13;;;8.82;100.00
34482;BME280;20720;48.886;9.388;2022-12-07T01:41:34;98464.75;;;8.33;100.00
34482;BME280;20720;48.886;9.388;2022-12-07T01:44:24;98463.41;;;8.37;100.00
34482;BME280;20720;48.886;9.388;2022-12-07T01:49:23;98461.69;;;8.59;100.00
34482;BME280;20720;48.886;9.388;2022-12-07T01:51:52;98461.31;;;8.03;100.00
34482;BME280;20720;48.886;9.388;2022-12-07T01:54:21;98459.50;;;8.18;100.00
34482;BME280;20720;48.886;9.388;2022-12-07T01:56:51;98471.31;;;8.14;100.00
34482;BME280;20720;48.886;9.388;2022-12-07T01:59:19;98464.41;;;8.36;100.00
34482;BME280;20720;48.886;9.388;2022-12-07T02:01:46;98464.03;;;8.68;100.00
34482;BME280;20720;48.886;9.388;2022-12-07T02:04:12;98468.69;;;8.73;100.00
34482;BME280;20720;48.886;9.388;2022-12-07T02:06:37;98462.06;;;8.26;100.00
34482;BME280;20720;48.886;9.388;2022-12-07T02:09:03;98470.09;;;8.54;100.00
34482;BME280;20720;48.886;9.388;2022-12-07T02:11:29;98463.69;;;8.57;100.00
34482;BME280;20720;48.886;9.388;2022-12-07T02:13:55;98464.75;;;8.18;100.00
34482;BME280;20720;48.886;9.388;2022-12-07T02:19:35;98467.72;;;8.74;100.00
34482;BME280;20720;48.886;9.388;2022-12-07T02:25:39;98456.91;;;8.62;100.00
34482;BME280;20720;48.886;9.388;2022-12-07T02:28:12;98454.28;;;8.62;100.00
34482;BME280;20720;48.886;9.388;2022-12-07T02:30:45;98454.38;;;8.90;100.00
34482;BME280;20720;48.886;9.388;2022-12-07T02:33:28;98452.63;;;8.76;100.00
34482;BME280;20720;48.886;9.388;2022-12-07T02:36:08;98441.38;;;8.17;100.00
34482;BME280;20720;48.886;9.388;2022-12-07T02:38:38;98445.63;;;8.03;100.00
34482;BME280;20720;48.886;9.388;2022-12-07T02:41:10;98446.88;;;8.07;100.00
34482;BME280;20720;48.886;9.388;2022-12-07T02:43:47;98444.09;;;8.09;100.00
34482;BME280;20720;48.886;9.388;2022-12-07T02:46:22;98437.84;;;7.95;100.00
34482;BME280;20720;48.886;9.388;2022-12-07T02:48:49;98436.94;;;7.88;100.00
34482;BME280;20720;48.886;9.388;2022-12-07T02:51:17;98438.59;;;8.47;100.00
34482;BME280;20720;48.886;9.388;2022-12-07T02:53:44;98437.59;;;8.05;100.00
34482;BME280;20720;48.886;9.388;2022-12-07T03:01:33;98442.00;;;8.63;100.00
34482;BME280;20720;48.886;9.388;2022-12-07T03:10:03;98428.38;;;8.23;100.00
34482;BME280;20720;48.886;9.388;2022-12-07T03:12:45;98430.09;;;8.45;100.00
34482;BME280;20720;48.886;9.388;2022-12-07T03:15:18;98431.53;;;8.63;100.00
34482;BME280;20720;48.886;9.388;2022-12-07T03:17:48;98425.44;;;8.26;100.00
34482;BME280;20720;48.886;9.388;2022-12-07T03:20:19;98432.31;;;7.61;100.00
34482;BME280;20720;48.886;9.388;2022-12-07T03:22:47;98428.00;;;7.83;100.00
34482;BME280;20720;48.886;9.388;2022-12-07T03:25:15;98437.47;;;7.69;100.00
34482;BME280;20720;48.886;9.388;2022-12-07T03:27:45;98433.09;;;8.28;100.00
34482;BME280;20720;48.886;9.388;2022-12-07T03:30:19;98428.03;;;8.41;100.00
34482;BME280;20720;48.886;9.388;2022-12-07T03:35:41;98426.75;;;8.22;100.00
34482;BME280;20720;48.886;9.388;2022-12-07T03:38:18;98428.56;;;8.22;100.00
34482;BME280;20720;48.886;9.388;2022-12-07T03:40:50;98430.59;;;8.34;100.00
34482;BME280;20720;48.886;9.388;2022-12-07T03:43:20;98423.25;;;8.44;100.00
34482;BME280;20720;48.886;9.388;2022-12-07T03:46:07;98418.19;;;8.14;100.00
34482;BME280;20720;48.886;9.388;2022-12-07T03:48:41;98418.03;;;8.15;100.00
34482;BME280;20720;48.886;9.388;2022-12-07T03:51:15;98421.81;;;7.98;100.00
34482;BME280;20720;48.886;9.388;2022-12-07T03:53:59;98416.72;;;7.82;100.00
34482;BME280;20720;48.886;9.388;2022-12-07T03:56:28;98414.84;;;8.05;100.00
34482;BME280;20720;48.886;9.388;2022-12-07T03:58:54;98412.78;;;8.15;100.00
34482;BME280;20720;48.886;9.388;2022-12-07T04:01:19;98406.00;;;7.77;100.00
34482;BME280;20720;48.886;9.388;2022-12-07T04:03:45;98403.84;;;7.29;100.00
34482;BME280;20720;48.886;9.388;2022-12-07T04:06:10;98407.88;;;6.94;100.00
34482;BME280;20720;48.886;9.388;2022-12-07T04:08:35;98408.94;;;7.45;100.00
34482;BME280;20720;48.886;9.388;2022-12-07T04:11:01;98398.19;;;6.49;100.00
34482;BME280;20720;48.886;9.388;2022-12-07T04:13:26;98385.88;;;6.66;100.00
34482;BME280;20720;48.886;9.388;2022-12-07T04:15:52;98372.72;;;5.90;100.00
34482;BME280;20720;48.886;9.388;2022-12-07T04:18:17;98350.41;;;5.88;100.00
34482;BME280;20720;48.886;9.388;2022-12-07T04:20:42;98350.88;;;5.83;100.00
34482;BME280;20720;48.886;9.388;2022-12-07T04:23:07;98351.50;;;6.01;100.00
34482;BME280;20720;48.886;9.388;2022-12-07T04:25:33;98350.97;;;6.36;100.00
34482;BME280;20720;48.886;9.388;2022-12-07T04:27:58;98350.81;;;6.60;100.00
34482;BME280;20720;48.886;9.388;2022-12-07T04:30:23;98354.81;;;7.31;100.00
34482;BME280;20720;48.886;9.388;2022-12-07T04:32:48;98368.06;;;7.15;100.00
34482;BME280;20720;48.886;9.388;2022-12-07T04:35:14;98371.06;;;8.14;100.00
34482;BME280;20720;48.886;9.388;2022-12-07T04:37:40;98375.78;;;8.18;100.00
34482;BME280;20720;48.886;9.388;2022-12-07T04:40:08;98371.78;;;6.98;100.00
34482;BME280;20720;48.886;9.388;2022-12-07T04:42:35;98369.22;;;7.27;100.00
34482;BME280;20720;48.886;9.388;2022-12-07T04:45:01;98365.97;;;7.62;100.00
34482;BME280;20720;48.886;9.388;2022-12-07T04:47:26;98358.53;;;8.24;100.00
34482;BME280;20720;48.886;9.388;2022-12-07T04:49:51;98359.38;;;7.95;100.00
34482;BME280;20720;48.886;9.388;2022-12-07T04:52:17;98360.38;;;7.94;100.00
34482;BME280;20720;48.886;9.388;2022-12-07T04:54:42;98379.03;;;8.20;100.00
34482;BME280;20720;48.886;9.388;2022-12-07T04:57:07;98384.00;;;8.15;100.00
34482;BME280;20720;48.886;9.388;2022-12-07T04:59:32;98381.13;;;8.25;100.00
34482;BME280;20720;48.886;9.388;2022-12-07T05:01:58;98389.78;;;8.25;100.00
34482;BME280;20720;48.886;9.388;2022-12-07T05:04:23;98386.19;;;8.12;100.00
34482;BME280;20720;48.886;9.388;2022-12-07T05:06:48;98389.78;;;8.11;100.00
34482;BME280;20720;48.886;9.388;2022-12-07T05:09:13;98392.19;;;8.12;100.00
34482;BME280;20720;48.886;9.388;2022-12-07T05:11:38;98392.28;;;7.90;100.00
34482;BME280;20720;48.886;9.388;2022-12-07T05:14:16;98397.53;;;7.90;100.00
34482;BME280;20720;48.886;9.388;2022-12-07T05:16:43;98398.06;;;8.00;100.00
34482;BME280;20720;48.886;9.388;2022-12-07T05:19:10;98403.31;;;8.00;100.00
34482;BME280;20720;48.886;9.388;2022-12-07T05:21:36;98397.25;;;7.99;100.00
34482;BME280;20720;48.886;9.388;2022-12-07T05:24:03;98402.38;;;7.78;100.00
34482;BME280;20720;48.886;9.388;2022-12-07T05:26:28;98399.06;;;7.70;100.00
34482;BME280;20720;48.886;9.388;2022-12-07T05:28:55;98397.72;;;7.88;100.00
34482;BME280;20720;48.886;9.388;2022-12-07T05:31:21;98395.81;;;7.82;100.00
34482;BME280;20720;48.886;9.388;2022-12-07T05:33:47;98396.53;;;7.76;100.00
34482;BME280;20720;48.886;9.388;2022-12-07T05:36:13;98410.59;;;7.75;100.00
34482;BME280;20720;48.886;9.388;2022-12-07T05:38:38;98397.22;;;7.55;100.00
34482;BME280;20720;48.886;9.388;2022-12-07T05:41:05;98403.84;;;7.66;100.00
34482;BME280;20720;48.886;9.388;2022-12-07T05:43:32;98402.75;;;7.75;100.00
34482;BME280;20720;48.886;9.388;2022-12-07T05:45:57;98395.19;;;7.80;100.00
34482;BME280;20720;48.886;9.388;2022-12-07T05:48:23;98403.13;;;7.87;100.00
34482;BME280;20720;48.886;9.388;2022-12-07T05:50:49;98407.47;;;7.94;100.00
34482;BME280;20720;48.886;9.388;2022-12-07T05:53:15;98407.16;;;7.89;100.00
34482;BME280;20720;48.886;9.388;2022-12-07T05:55:40;98406.28;;;7.82;100.00
34482;BME280;20720;48.886;9.388;2022-12-07T05:58:05;98404.81;;;7.65;100.00
34482;BME280;20720;48.886;9.388;2022-12-07T06:00:50;98398.50;;;7.74;100.00
34482;BME280;20720;48.886;9.388;2022-12-07T06:03:15;98400.84;;;7.84;100.00
34482;BME280;20720;48.886;9.388;2022-12-07T06:05:40;98399.25;;;7.97;100.00
34482;BME280;20720;48.886;9.388;2022-12-07T06:08:06;98401.31;;;8.02;100.00
34482;BME280;20720;48.886;9.388;2022-12-07T06:10:32;98403.22;;;6.82;100.00
34482;BME280;20720;48.886;9.388;2022-12-07T06:12:57;98397.22;;;7.41;100.00
34482;BME280;20720;48.886;9.388;2022-12-07T06:15:22;98400.22;;;7.82;100.00
34482;BME280;20720;48.886;9.388;2022-12-07T06:17:48;98400.72;;;7.11;100.00
34482;BME280;20720;48.886;9.388;2022-12-07T06:20:13;98403.97;;;7.35;100.00
34482;BME280;20720;48.886;9.388;2022-12-07T06:22:38;98397.28;;;7.33;100.00
34482;BME280;20720;48.886;9.388;2022-12-07T06:25:04;98393.88;;;7.10;100.00
34482;BME280;20720;48.886;9.388;2022-12-07T06:27:29;98394.00;;;6.71;100.00
34482;BME280;20720;48.886;9.388;2022-12-07T06:29:55;98400.47;;;6.52;100.00
34482;BME280;20720;48.886;9.388;2022-12-07T06:32:20;98397.34;;;6.80;100.00
34482;BME280;20720;48.886;9.388;2022-12-07T06:34:45;98400.66;;;7.56;100.00
34482;BME280;20720;48.886;9.388;2022-12-07T06:37:12;98409.91;;;7.81;100.00
34482;BME280;20720;48.886;9.388;2022-12-07T06:39:37;98413.47;;;7.80;100.00
34482;BME280;20720;48.886;9.388;2022-12-07T06:42:03;98421.34;;;8.09;100.00
34482;BME280;20720;48.886;9.388;2022-12-07T06:44:29;98414.59;;;8.29;100.00
34482;BME280;20720;48.886;9.388;2022-12-07T06:46:55;98422.44;;;8.15;100.00
34482;BME280;20720;48.886;9.388;2022-12-07T06:49:20;98417.50;;;8.34;100.00
34482;BME280;20720;48.886;9.388;2022-12-07T06:51:46;98414.69;;;7.92;100.00
34482;BME280;20720;48.886;9.388;2022-12-07T06:54:12;98410.25;;;8.07;100.00
34482;BME280;20720;48.886;9.388;2022-12-07T06:56:38;98411.00;;;8.30;100.00
34482;BME280;20720;48.886;9.388;2022-12-07T06:59:05;98426.16;;;7.17;100.00
34482;BME280;20720;48.886;9.388;2022-12-07T07:01:31;98422.16;;;7.81;100.00
34482;BME280;20720;48.886;9.388;2022-12-07T07:03:57;98410.16;;;7.72;100.00
34482;BME280;20720;48.886;9.388;2022-12-07T07:06:22;98411.44;;;7.76;100.00
34482;BME280;20720;48.886;9.388;2022-12-07T07:08:47;98409.72;;;8.12;100.00
34482;BME280;20720;48.886;9.388;2022-12-07T07:11:13;98411.50;;;7.97;100.00
34482;BME280;20720;48.886;9.388;2022-12-07T07:13:38;98422.44;;;7.34;100.00
34482;BME280;20720;48.886;9.388;2022-12-07T07:16:04;98416.28;;;7.79;100.00
34482;BME280;20720;48.886;9.388;2022-12-07T07:18:30;98422.31;;;7.27;100.00
34482;BME280;20720;48.886;9.388;2022-12-07T07:20:55;98422.69;;;8.05;100.00
34482;BME280;20720;48.886;9.388;2022-12-07T07:23:21;98419.16;;;7.69;100.00
34482;BME280;20720;48.886;9.388;2022-12-07T07:25:47;98425.41;;;7.97;100.00
34482;BME280;20720;48.886;9.388;2022-12-07T07:28:13;98420.00;;;8.42;100.00
34482;BME280;20720;48.886;9.388;2022-12-07T07:30:39;98429.28;;;8.45;100.00
34482;BME280;20720;48.886;9.388;2022-12-07T07:33:04;98417.66;;;8.18;100.00
34482;BME280;20720;48.886;9.388;2022-12-07T07:35:31;98421.97;;;7.82;100.00
34482;BME280;20720;48.886;9.388;2022-12-07T07:37:57;98420.34;;;8.10;100.00
34482;BME280;20720;48.886;9.388;2022-12-07T07:40:23;98436.81;;;7.67;100.00
34482;BME280;20720;48.886;9.388;2022-12-07T07:42:53;98427.13;;;7.90;100.00
34482;BME280;20720;48.886;9.388;2022-12-07T07:45:19;98426.06;;;8.28;100.00
34482;BME280;20720;48.886;9.388;2022-12-07T07:47:45;98434.44;;;8.09;100.00
34482;BME280;20720;48.886;9.388;2022-12-07T07:50:10;98434.44;;;8.38;100.00
34482;BME280;20720;48.886;9.388;2022-12-07T07:52:36;98433.72;;;8.44;100.00
34482;BME280;20720;48.886;9.388;2022-12-07T07:55:01;98446.09;;;7.55;100.00
34482;BME280;20720;48.886;9.388;2022-12-07T07:57:26;98437.38;;;8.06;100.00
34482;BME280;20720;48.886;9.388;2022-12-07T07:59:52;98442.25;;;7.80;100.00
34482;BME280;20720;48.886;9.388;2022-12-07T08:02:19;98437.84;;;7.95;100.00
34482;BME280;20720;48.886;9.388;2022-12-07T08:04:45;98443.00;;;8.18;100.00
34482;BME280;20720;48.886;9.388;2022-12-07T08:07:12;98443.19;;;8.02;100.00
34482;BME280;20720;48.886;9.388;2022-12-07T08:09:38;98448.97;;;8.12;100.00
34482;BME280;20720;48.886;9.388;2022-12-07T08:12:04;98442.41;;;8.30;100.00
34482;BME280;20720;48.886;9.388;2022-12-07T08:14:30;98444.47;;;7.54;100.00
34482;BME280;20720;48.886;9.388;2022-12-07T08:16:55;98434.09;;;7.23;100.00
34482;BME280;20720;48.886;9.388;2022-12-07T08:19:21;98440.38;;;8.03;100.00
34482;BME280;20720;48.886;9.388;2022-12-07T08:21:46;98447.91;;;7.54;100.00
34482;BME280;20720;48.886;9.388;2022-12-07T08:24:11;98448.41;;;7.50;100.00
34482;BME280;20720;48.886;9.388;2022-12-07T08:26:37;98451.22;;;8.00;100.00
34482;BME280;20720;48.886;9.388;2022-12-07T08:29:02;98456.84;;;7.60;100.00
34482;BME280;20720;48.886;9.388;2022-12-07T08:31:27;98449.38;;;7.86;100.00
34482;BME280;20720;48.886;9.388;2022-12-07T08:33:53;98451.53;;;7.68;100.00
34482;BME280;20720;48.886;9.388;2022-12-07T08:36:19;98452.91;;;7.79;100.00
34482;BME280;20720;48.886;9.388;2022-12-07T08:38:45;98450.69;;;8.48;100.00
34482;BME280;20720;48.886;9.388;2022-12-07T08:41:10;98449.47;;;8.66;100.00
34482;BME280;20720;48.886;9.388;2022-12-07T08:43:35;98454.69;;;8.80;100.00
34482;BME280;20720;48.886;9.388;2022-12-07T08:46:18;98451.13;;;8.67;100.00
34482;BME280;20720;48.886;9.388;2022-12-07T08:48:52;98449.88;;;8.04;100.00
34482;BME280;20720;48.886;9.388;2022-12-07T08:51:18;98449.13;;;8.69;100.00
34482;BME280;20720;48.886;9.388;2022-12-07T08:53:44;98451.03;;;8.16;100.00
34482;BME280;20720;48.886;9.388;2022-12-07T08:56:10;98459.53;;;8.33;100.00
34482;BME280;20720;48.886;9.388;2022-12-07T08:58:37;98454.28;;;8.98;100.00
34482;BME280;20720;48.886;9.388;2022-12-07T09:01:04;98457.63;;;8.92;100.00
34482;BME280;20720;48.886;9.388;2022-12-07T09:03:29;98459.78;;;8.09;100.00
34482;BME280;20720;48.886;9.388;2022-12-07T09:05:55;98455.09;;;8.48;100.00
34482;BME280;20720;48.886;9.388;2022-12-07T09:08:21;98454.22;;;8.41;100.00
34482;BME280;20720;48.886;9.388;2022-12-07T09:10:47;98456.69;;;8.64;100.00
34482;BME280;20720;48.886;9.388;2022-12-07T09:13:12;98448.00;;;9.62;99.17
34482;BME280;20720;48.886;9.388;2022-12-07T09:15:38;98462.25;;;7.73;100.00
34482;BME280;20720;48.886;9.388;2022-12-07T09:18:03;98451.41;;;8.13;100.00
34482;BME280;20720;48.886;9.388;2022-12-07T09:20:28;98457.59;;;8.71;100.00
34482;BME280;20720;48.886;9.388;2022-12-07T09:22:54;98456.06;;;9.33;95.61
34482;BME280;20720;48.886;9.388;2022-12-07T09:25:20;98451.78;;;9.53;93.55
34482;BME280;20720;48.886;9.388;2022-12-07T09:27:45;98460.59;;;8.38;96.34
34482;BME280;20720;48.886;9.388;2022-12-07T09:30:11;98463.81;;;9.05;95.50
34482;BME280;20720;48.886;9.388;2022-12-07T09:32:36;98458.78;;;8.53;98.56
34482;BME280;20720;48.886;9.388;2022-12-07T09:35:02;98461.16;;;9.41;95.03
34482;BME280;20720;48.886;9.388;2022-12-07T09:37:27;98465.59;;;9.89;89.18
34482;BME280;20720;48.886;9.388;2022-12-07T09:39:52;98456.63;;;10.05;87.98
34482;BME280;20720;48.886;9.388;2022-12-07T09:42:32;98460.22;;;10.04;88.31
34482;BME280;20720;48.886;9.388;2022-12-07T09:44:59;98457.41;;;10.05;87.19
34482;BME280;20720;48.886;9.388;2022-12-07T09:47:25;98463.88;;;8.91;93.69
34482;BME280;20720;48.886;9.388;2022-12-07T09:49:51;98461.09;;;9.13;94.83
34482;BME280;20720;48.886;9.388;2022-12-07T09:52:21;98450.38;;;10.40;88.38
34482;BME280;20720;48.886;9.388;2022-12-07T09:54:50;98450.56;;;10.04;89.23
34482;BME280;20720;48.886;9.388;2022-12-07T09:57:17;98448.03;;;10.17;87.27
34482;BME280;20720;48.886;9.388;2022-12-07T09:59:43;98443.22;;;9.93;89.86
34482;BME280;20720;48.886;9.388;2022-12-07T10:02:32;98440.72;;;9.58;89.42
34482;BME280;20720;48.886;9.388;2022-12-07T10:04:59;98441.13;;;9.33;93.63
34482;BME280;20720;48.886;9.388;2022-12-07T10:07:25;98439.19;;;9.42;93.91
34482;BME280;20720;48.886;9.388;2022-12-07T10:09:50;98439.16;;;8.79;97.14
34482;BME280;20720;48.886;9.388;2022-12-07T10:12:16;98436.38;;;8.66;99.95
34482;BME280;20720;48.886;9.388;2022-12-07T10:14:57;98428.16;;;9.81;92.13
34482;BME280;20720;48.886;9.388;2022-12-07T10:17:47;98432.09;;;8.79;99.11
34482;BME280;20720;48.886;9.388;2022-12-07T10:23:04;98432.78;;;9.23;98.02
34482;BME280;20720;48.886;9.388;2022-12-07T10:25:35;98430.31;;;9.43;97.61
34482;BME280;20720;48.886;9.388;2022-12-07T10:28:15;98431.81;;;8.89;99.69
34482;BME280;20720;48.886;9.388;2022-12-07T10:33:31;98428.19;;;8.90;100.00
34482;BME280;20720;48.886;9.388;2022-12-07T10:35:57;98418.75;;;10.20;92.33
34482;BME280;20720;48.886;9.388;2022-12-07T10:38:25;98420.38;;;10.21;92.92
34482;BME280;20720;48.886;9.388;2022-12-07T10:41:03;98417.75;;;10.75;88.92
34482;BME280;20720;48.886;9.388;2022-12-07T10:43:29;98425.50;;;10.29;90.52
34482;BME280;20720;48.886;9.388;2022-12-07T10:51:49;98414.53;;;9.15;96.29
34482;BME280;20720;48.886;9.388;2022-12-07T10:54:47;98412.75;;;9.71;93.86
34482;BME280;20720;48.886;9.388;2022-12-07T11:00:04;98408.16;;;10.07;94.08
34482;BME280;20720;48.886;9.388;2022-12-07T11:05:40;98396.75;;;10.69;90.71
34482;BME280;20720;48.886;9.388;2022-12-07T11:21:48;98388.75;;;10.02;93.48
34482;BME280;20720;48.886;9.388;2022-12-07T11:24:18;98388.47;;;10.18;95.82
34482;BME280;20720;48.886;9.388;2022-12-07T11:27:00;98389.16;;;10.39;93.27
34482;BME280;20720;48.886;9.388;2022-12-07T11:29:50;98389.75;;;10.35;94.71
34482;BME280;20720;48.886;9.388;2022-12-07T11:35:38;98373.00;;;10.02;100.00
34482;BME280;20720;48.886;9.388;2022-12-07T11:38:15;98377.25;;;9.41;100.00
34482;BME280;20720;48.886;9.388;2022-12-07T11:40:45;98371.91;;;9.56;100.00
34482;BME280;20720;48.886;9.388;2022-12-07T11:43:21;98366.13;;;9.39;100.00
34482;BME280;20720;48.886;9.388;2022-12-07T11:46:03;98360.66;;;9.96;100.00
34482;BME280;20720;48.886;9.388;2022-12-07T11:48:45;98364.56;;;8.96;100.00
34482;BME280;20720;48.886;9.388;2022-12-07T11:51:12;98362.22;;;9.56;100.00
34482;BME280;20720;48.886;9.388;2022-12-07T11:54:01;98361.44;;;9.56;100.00
34482;BME280;20720;48.886;9.388;2022-12-07T11:56:29;98350.38;;;8.48;100.00
34482;BME280;20720;48.886;9.388;2022-12-07T12:06:37;98346.66;;;9.48;100.00
34482;BME280;20720;48.886;9.388;2022-12-07T12:09:26;98350.81;;;9.15;100.00
34482;BME280;20720;48.886;9.388;2022-12-07T12:12:08;98346.25;;;9.51;100.00
34482;BME280;20720;48.886;9.388;2022-12-07T12:17:48;98338.41;;;10.26;100.00
34482;BME280;20720;48.886;9.388;2022-12-07T12:23:36;98339.22;;;10.26;100.00
34482;BME280;20720;48.886;9.388;2022-12-07T12:26:05;98330.69;;;10.11;100.00
34482;BME280;20720;48.886;9.388;2022-12-07T12:28:39;98336.66;;;9.37;100.00
34482;BME280;20720;48.886;9.388;2022-12-07T12:31:09;98335.22;;;9.56;100.00
34482;BME280;20720;48.886;9.388;2022-12-07T12:33:35;98334.13;;;8.74;100.00
34482;BME280;20720;48.886;9.388;2022-12-07T12:46:57;98332.50;;;8.51;100.00
34482;BME280;20720;48.886;9.388;2022-12-07T12:54:35;98325.16;;;9.66;100.00
34482;BME280;20720;48.886;9.388;2022-12-07T12:57:19;98325.34;;;9.98;100.00
34482;BME280;20720;48.886;9.388;2022-12-07T13:02:26;98310.41;;;10.05;100.00
34482;BME280;20720;48.886;9.388;2022-12-07T13:10:47;98310.50;;;9.43;100.00
34482;BME280;20720;48.886;9.388;2022-12-07T13:15:51;98303.81;;;9.69;100.00
34482;BME280;20720;48.886;9.388;2022-12-07T13:20:59;98299.34;;;9.69;100.00
34482;BME280;20720;48.886;9.388;2022-12-07T13:28:45;98290.03;;;9.60;100.00
34482;BME280;20720;48.886;9.388;2022-12-07T13:31:25;98296.53;;;9.09;100.00
34482;BME280;20720;48.886;9.388;2022-12-07T13:33:53;98293.38;;;9.20;100.00
34482;BME280;20720;48.886;9.388;2022-12-07T13:36:44;98288.34;;;9.46;100.00
34482;BME280;20720;48.886;9.388;2022-12-07T13:41:36;98288.19;;;9.95;100.00
34482;BME280;20720;48.886;9.388;2022-12-07T13:44:11;98283.72;;;9.89;100.00
34482;BME280;20720;48.886;9.388;2022-12-07T13:51:51;98289.25;;;9.66;100.00
34482;BME280;20720;48.886;9.388;2022-12-07T13:54:18;98278.88;;;9.92;100.00
34482;BME280;20720;48.886;9.388;2022-12-07T13:56:43;98281.28;;;10.34;100.00
34482;BME280;20720;48.886;9.388;2022-12-07T13:59:22;98277.03;;;10.47;100.00
34482;BME280;20720;48.886;9.388;2022-12-07T14:01:50;98281.47;;;10.33;100.00
34482;BME280;20720;48.886;9.388;2022-12-07T14:06:56;98280.88;;;9.84;100.00
34482;BME280;20720;48.886;9.388;2022-12-07T14:09:24;98281.84;;;10.30;100.00
34482;BME280;20720;48.886;9.388;2022-12-07T14:11:52;98280.50;;;9.93;100.00
34482;BME280;20720;48.886;9.388;2022-12-07T14:14:22;98284.75;;;10.68;100.00
34482;BME280;20720;48.886;9.388;2022-12-07T14:16:59;98286.38;;;10.88;97.95
34482;BME280;20720;48.886;9.388;2022-12-07T14:22:06;98279.09;;;10.58;100.00
34482;BME280;20720;48.886;9.388;2022-12-07T14:24:41;98291.25;;;9.02;100.00
34482;BME280;20720;48.886;9.388;2022-12-07T14:27:16;98286.28;;;9.41;100.00
34482;BME280;20720;48.886;9.388;2022-12-07T14:29:42;98283.44;;;10.11;100.00
34482;BME280;20720;48.886;9.388;2022-12-07T14:32:19;98282.66;;;10.17;100.00
34482;BME280;20720;48.886;9.388;2022-12-07T14:35:17;98274.41;;;9.86;100.00
34482;BME280;20720;48.886;9.388;2022-12-07T14:37:45;98280.63;;;10.19;100.00
34482;BME280;20720;48.886;9.388;2022-12-07T14:40:17;98280.19;;;9.69;100.00
34482;BME280;20720;48.886;9.388;2022-12-07T14:42:44;98277.69;;;9.54;100.00
34482;BME280;20720;48.886;9.388;2022-12-07T14:45:17;98278.09;;;9.98;100.00
34482;BME280;20720;48.886;9.388;2022-12-07T14:47:43;98282.56;;;9.64;100.00
34482;BME280;20720;48.886;9.388;2022-12-07T14:50:11;98282.91;;;9.20;100.00
34482;BME280;20720;48.886;9.388;2022-12-07T14:52:38;98279.53;;;9.60;100.00
34482;BME280;20720;48.886;9.388;2022-12-07T14:55:04;98272.63;;;9.93;100.00
34482;BME280;20720;48.886;9.388;2022-12-07T14:57:30;98276.66;;;9.89;100.00
34482;BME280;20720;48.886;9.388;2022-12-07T14:59:55;98271.16;;;9.84;100.00
34482;BME280;20720;48.886;9.388;2022-12-07T15:02:20;98279.31;;;9.55;100.00
34482;BME280;20720;48.886;9.388;2022-12-07T15:04:45;98278.66;;;9.46;100.00
34482;BME280;20720;48.886;9.388;2022-12-07T15:07:20;98284.47;;;9.76;100.00